Terminal Aerodrome Forecast
Issued by NWS

Current Version | Previous Version | Graphics & Text | Print | Product List | Glossary On
Versions: 1 2 3 4 5 6 7 8 9 10 11 12 13 14 15 16
619
FTUS41 KILN 181732
TAFLCK
TAF
KLCK 181732Z 1818/1918 28009KT P6SM OVC015
     FM190000 VRB03KT P6SM OVC015
     FM191400 VRB03KT P6SM SCT015 BKN250
      AMD NOT SKED=

USA.gov is the U.S. government's official web portal to all federal, state and local government web resources and services.